createdAt,value
2023-03-10T00:00:05.982Z,47.89
2023-03-10T00:02:35.089Z,47.93
2023-03-10T00:05:03.519Z,48.02
2023-03-10T00:07:31.196Z,47.86
2023-03-10T00:09:58.862Z,48.13
2023-03-10T00:12:27.925Z,47.82
2023-03-10T00:14:56.288Z,47.85
2023-03-10T00:17:23.992Z,47.85
2023-03-10T00:19:53.042Z,48.04
2023-03-10T00:22:20.731Z,47.96
2023-03-10T00:24:48.596Z,47.95
2023-03-10T00:27:16.327Z,48.02
2023-03-10T00:29:44.013Z,47.87
2023-03-10T00:32:11.744Z,47.78
2023-03-10T00:34:39.471Z,48.39
2023-03-10T00:37:09.303Z,47.99
2023-03-10T00:39:37.115Z,48.18
2023-03-10T00:42:05.010Z,48.92
2023-03-10T00:44:32.816Z,49.00
2023-03-10T00:47:00.474Z,48.51
2023-03-10T00:49:28.155Z,48.14
2023-03-10T00:51:55.863Z,48.07
2023-03-10T00:54:24.910Z,47.97
2023-03-10T00:56:52.572Z,48.25
2023-03-10T00:59:20.290Z,48.15
2023-03-10T01:01:48.058Z,48.10
2023-03-10T01:04:18.807Z,47.84
2023-03-10T01:06:47.663Z,48.13
2023-03-10T01:09:15.587Z,48.18
2023-03-10T01:11:44.629Z,48.05
2023-03-10T01:14:13.555Z,48.01
2023-03-10T01:16:41.215Z,48.16
2023-03-10T01:19:08.946Z,47.94
2023-03-10T01:21:37.705Z,47.78
2023-03-10T01:24:06.275Z,47.79
2023-03-10T01:26:33.959Z,47.80
2023-03-10T01:29:02.985Z,48.32
2023-03-10T01:31:30.779Z,47.68
2023-03-10T01:33:58.604Z,47.79
2023-03-10T01:36:27.145Z,47.84
2023-03-10T01:38:54.888Z,48.32
2023-03-10T01:41:22.675Z,48.32
2023-03-10T01:43:50.742Z,47.93
2023-03-10T01:46:37.042Z,47.99
2023-03-10T01:49:06.815Z,47.73
2023-03-10T01:51:35.804Z,47.75
2023-03-10T01:54:03.959Z,47.70
2023-03-10T01:56:31.648Z,48.00
2023-03-10T01:58:59.344Z,47.57
2023-03-10T02:01:28.406Z,47.91
2023-03-10T02:03:59.301Z,47.70
2023-03-10T02:06:27.012Z,47.87
2023-03-10T02:08:57.541Z,47.68
2023-03-10T02:11:25.451Z,47.77
2023-03-10T02:13:53.197Z,48.12
2023-03-10T02:16:20.913Z,48.16
2023-03-10T02:18:49.989Z,48.07
2023-03-10T02:21:21.787Z,48.26
2023-03-10T02:24:01.079Z,47.84
2023-03-10T02:26:34.761Z,48.22
2023-03-10T02:29:04.907Z,48.24
2023-03-10T02:31:32.633Z,48.37
2023-03-10T02:34:00.311Z,48.47
2023-03-10T02:36:28.025Z,48.17
2023-03-10T02:38:55.769Z,48.36
2023-03-10T02:41:25.983Z,48.25
2023-03-10T02:43:53.703Z,48.18
2023-03-10T02:46:22.837Z,48.11
2023-03-10T02:48:50.783Z,48.26
2023-03-10T02:51:20.700Z,48.29
2023-03-10T02:53:48.371Z,48.35
2023-03-10T02:56:16.048Z,48.39
2023-03-10T02:58:43.904Z,49.69
2023-03-10T03:01:11.577Z,49.90
2023-03-10T03:03:40.687Z,49.58
2023-03-10T03:06:08.516Z,49.56
2023-03-10T03:08:36.196Z,49.54
2023-03-10T03:11:03.904Z,49.48
2023-03-10T03:13:31.574Z,49.65
2023-03-10T03:15:59.287Z,49.27
2023-03-10T03:18:26.992Z,49.36
2023-03-10T03:20:56.004Z,49.53
2023-03-10T03:23:23.728Z,49.61
2023-03-10T03:25:51.453Z,49.66
2023-03-10T03:28:19.202Z,49.97
2023-03-10T03:30:47.154Z,49.55
2023-03-10T03:33:14.812Z,49.85
2023-03-10T03:35:43.602Z,49.58
2023-03-10T03:38:12.705Z,49.47
2023-03-10T03:40:40.748Z,49.81
2023-03-10T03:43:08.398Z,49.45
2023-03-10T03:45:36.044Z,49.60
2023-03-10T03:48:03.720Z,49.48
2023-03-10T03:50:31.474Z,49.08
2023-03-10T03:52:59.152Z,49.25
2023-03-10T03:55:28.862Z,49.41
2023-03-10T03:57:56.592Z,49.89
2023-03-10T04:00:25.157Z,49.63
2023-03-10T04:02:53.093Z,49.38
2023-03-10T04:05:20.823Z,49.23
2023-03-10T04:07:49.880Z,49.35
2023-03-10T04:10:19.106Z,49.37
2023-03-10T04:12:48.159Z,49.23
2023-03-10T04:15:16.145Z,49.67
2023-03-10T04:17:43.822Z,49.09
2023-03-10T04:20:14.176Z,49.05
2023-03-10T04:22:41.866Z,49.17
2023-03-10T04:25:10.022Z,49.08
2023-03-10T04:27:37.704Z,49.09
2023-03-10T04:30:08.266Z,49.28
2023-03-10T04:32:35.995Z,48.93
2023-03-10T04:35:03.772Z,49.40
2023-03-10T04:37:31.460Z,49.16
2023-03-10T04:39:59.159Z,49.06
2023-03-10T04:42:28.113Z,48.97
2023-03-10T04:44:55.795Z,48.94
2023-03-10T04:47:24.804Z,49.38
2023-03-10T04:49:52.540Z,49.93
2023-03-10T04:52:20.238Z,49.52
2023-03-10T04:54:48.339Z,49.62
2023-03-10T04:57:16.221Z,49.89
2023-03-10T04:59:44.000Z,49.68
2023-03-10T05:02:11.703Z,49.38
2023-03-10T05:04:40.823Z,49.39
2023-03-10T05:07:08.483Z,50.00
2023-03-10T05:09:37.238Z,49.75
2023-03-10T05:12:05.360Z,49.44
2023-03-10T05:14:33.083Z,50.08
2023-03-10T05:17:00.832Z,49.65
2023-03-10T05:19:28.714Z,50.06
2023-03-10T05:21:58.174Z,49.86
2023-03-10T05:24:25.857Z,49.50
2023-03-10T05:26:53.579Z,49.53
2023-03-10T05:29:21.871Z,49.44
2023-03-10T05:31:49.630Z,49.99
2023-03-10T05:34:17.694Z,49.60
2023-03-10T05:36:45.348Z,49.89
2023-03-10T05:39:14.617Z,49.82
2023-03-10T05:41:42.293Z,49.93
2023-03-10T05:44:10.579Z,49.69
2023-03-10T05:46:38.507Z,49.70
2023-03-10T05:49:06.220Z,49.45
2023-03-10T05:51:33.914Z,49.53
2023-03-10T05:54:01.557Z,50.00
2023-03-10T05:56:30.723Z,49.59
2023-03-10T05:58:58.420Z,49.40
2023-03-10T06:01:26.090Z,49.51
2023-03-10T06:03:53.777Z,49.87
2023-03-10T06:06:21.517Z,49.46
2023-03-10T06:08:49.260Z,49.59
2023-03-10T06:11:16.948Z,49.62
2023-03-10T06:13:45.955Z,49.27
2023-03-10T06:16:13.657Z,48.99
2023-03-10T06:18:41.377Z,49.21
2023-03-10T06:21:09.680Z,49.12
2023-03-10T06:23:37.603Z,48.75
2023-03-10T06:26:06.976Z,48.82
2023-03-10T06:28:36.547Z,48.58
2023-03-10T06:31:06.677Z,48.66
2023-03-10T06:33:34.468Z,49.88
2023-03-10T06:36:02.294Z,50.08
2023-03-10T06:38:30.572Z,49.90
2023-03-10T06:40:58.445Z,49.88
2023-03-10T06:43:26.236Z,50.23
2023-03-10T06:45:54.043Z,49.96
2023-03-10T06:48:23.119Z,50.18
2023-03-10T06:50:50.893Z,50.20
2023-03-10T06:53:21.254Z,50.47
2023-03-10T06:55:58.104Z,50.15
2023-03-10T06:58:25.878Z,50.46
2023-03-10T07:00:53.665Z,50.21
2023-03-10T07:03:22.727Z,50.05
2023-03-10T07:05:50.433Z,50.05
2023-03-10T07:08:18.176Z,49.95
2023-03-10T07:10:45.853Z,50.33
2023-03-10T07:13:15.574Z,49.84
2023-03-10T07:15:43.325Z,50.07
2023-03-10T07:18:11.030Z,49.81
2023-03-10T07:20:41.575Z,49.49
2023-03-10T07:23:09.276Z,49.64
2023-03-10T07:25:37.520Z,49.88
2023-03-10T07:28:05.522Z,49.92
2023-03-10T07:30:33.319Z,50.04
2023-03-10T07:33:00.983Z,49.48
2023-03-10T07:35:28.798Z,49.21
2023-03-10T07:37:58.977Z,49.19
2023-03-10T07:40:26.679Z,48.76
2023-03-10T07:42:54.777Z,48.65
2023-03-10T07:45:22.900Z,49.01
2023-03-10T07:47:51.207Z,48.93
2023-03-10T07:50:19.124Z,48.55
2023-03-10T07:52:46.822Z,48.33
2023-03-10T07:55:15.855Z,48.26
2023-03-10T07:57:43.572Z,48.23
2023-03-10T08:00:12.202Z,48.65
2023-03-10T08:02:39.962Z,48.11
2023-03-10T08:05:08.726Z,48.54
2023-03-10T08:07:36.528Z,48.26
2023-03-10T08:10:04.420Z,48.62
2023-03-10T08:12:34.067Z,48.42
2023-03-10T08:15:01.744Z,48.60
2023-03-10T08:17:30.825Z,48.38
2023-03-10T08:19:58.768Z,48.04
2023-03-10T08:22:26.594Z,47.88
2023-03-10T08:24:54.345Z,48.02
2023-03-10T08:27:22.140Z,47.95
2023-03-10T08:29:51.176Z,48.03
2023-03-10T08:32:19.778Z,47.90
2023-03-10T08:34:47.642Z,48.11
2023-03-10T08:37:15.335Z,47.83
2023-03-10T08:39:43.037Z,47.96
2023-03-10T08:42:11.575Z,48.13
2023-03-10T08:44:39.401Z,48.04
2023-03-10T08:47:08.654Z,47.70
2023-03-10T08:49:36.386Z,47.72
2023-03-10T08:52:04.276Z,48.09
2023-03-10T08:54:32.690Z,47.72
2023-03-10T08:57:00.733Z,48.01
2023-03-10T08:59:28.579Z,47.67
2023-03-10T09:01:56.274Z,47.97
2023-03-10T09:04:25.334Z,47.85
2023-03-10T09:06:53.088Z,47.86
2023-03-10T09:09:20.780Z,47.85
2023-03-10T09:11:48.439Z,47.74
2023-03-10T09:14:17.385Z,47.89
2023-03-10T09:16:45.266Z,47.50
2023-03-10T09:19:13.016Z,47.80
2023-03-10T09:21:42.638Z,47.71
2023-03-10T09:24:10.333Z,47.29
2023-03-10T09:26:38.019Z,47.55
2023-03-10T09:29:05.693Z,47.78
2023-03-10T09:31:34.872Z,47.80
2023-03-10T09:34:02.692Z,47.67
2023-03-10T09:36:30.611Z,47.53
2023-03-10T09:38:59.827Z,47.27
2023-03-10T09:41:38.840Z,47.21
2023-03-10T09:44:13.842Z,47.64
2023-03-10T09:46:43.631Z,47.33
2023-03-10T09:49:13.306Z,47.24
2023-03-10T09:51:41.863Z,47.62
2023-03-10T09:54:31.012Z,47.40
2023-03-10T09:56:59.640Z,47.43
2023-03-10T09:59:31.856Z,47.12
2023-03-10T10:02:00.171Z,47.51
2023-03-10T10:04:29.715Z,47.08
2023-03-10T10:06:57.440Z,47.29
2023-03-10T10:09:28.994Z,47.32
2023-03-10T10:11:57.015Z,46.99
2023-03-10T10:14:29.845Z,47.27
2023-03-10T10:17:02.448Z,47.22
2023-03-10T10:19:30.312Z,47.38
2023-03-10T10:21:59.948Z,47.34
2023-03-10T10:24:29.162Z,47.21
2023-03-10T10:26:56.876Z,46.98
2023-03-10T10:29:25.397Z,46.64
2023-03-10T10:32:14.155Z,46.87
2023-03-10T10:34:42.697Z,46.76
2023-03-10T10:37:25.320Z,46.69
2023-03-10T10:39:54.715Z,47.15
2023-03-10T10:42:24.233Z,46.70
2023-03-10T10:44:53.456Z,46.70
2023-03-10T10:47:29.653Z,46.52
2023-03-10T10:50:09.535Z,47.03
2023-03-10T10:52:37.203Z,46.63
2023-03-10T10:55:07.042Z,46.78
2023-03-10T10:57:35.914Z,46.95
2023-03-10T11:00:19.420Z,46.74
2023-03-10T11:02:47.184Z,46.45
2023-03-10T11:05:16.813Z,46.74
2023-03-10T11:07:45.014Z,46.63
2023-03-10T11:10:15.434Z,46.95
2023-03-10T11:12:53.610Z,46.69
2023-03-10T11:15:23.892Z,46.76
2023-03-10T11:17:55.007Z,46.86
2023-03-10T11:20:25.857Z,46.84
2023-03-10T11:22:56.601Z,46.44
2023-03-10T11:25:31.478Z,46.75
2023-03-10T11:28:05.776Z,46.69
2023-03-10T11:30:34.091Z,46.68
2023-03-10T11:33:07.941Z,46.34
2023-03-10T11:35:38.862Z,46.68
2023-03-10T11:38:12.544Z,46.40
2023-03-10T11:40:44.755Z,46.50
2023-03-10T11:43:15.579Z,46.62
2023-03-10T11:45:45.584Z,46.55
2023-03-10T11:48:26.526Z,46.23
2023-03-10T11:50:55.165Z,46.35
2023-03-10T11:53:29.114Z,46.07
2023-03-10T11:55:58.508Z,46.12
2023-03-10T11:58:27.932Z,46.32
2023-03-10T12:00:55.814Z,46.30
2023-03-10T12:03:31.222Z,46.20
2023-03-10T12:05:59.683Z,46.04
2023-03-10T12:08:30.662Z,46.22
2023-03-10T12:11:00.225Z,46.14
2023-03-10T12:13:28.738Z,46.50
2023-03-10T12:15:59.577Z,45.93
2023-03-10T12:18:27.391Z,46.23
2023-03-10T12:21:20.602Z,46.08
2023-03-10T12:23:48.558Z,46.45
2023-03-10T12:26:23.779Z,46.22
2023-03-10T12:28:51.795Z,46.23
2023-03-10T12:31:46.554Z,45.92
2023-03-10T12:34:15.132Z,46.23
2023-03-10T12:36:42.803Z,45.99
2023-03-10T12:39:31.760Z,45.90
2023-03-10T12:42:00.946Z,46.10
2023-03-10T12:44:51.311Z,45.83
2023-03-10T12:47:26.138Z,46.19
2023-03-10T12:49:56.144Z,46.03
2023-03-10T12:52:28.411Z,45.80
2023-03-10T12:55:08.707Z,46.11
2023-03-10T12:57:42.428Z,46.08
2023-03-10T13:00:16.234Z,46.17
2023-03-10T13:02:47.463Z,46.04
2023-03-10T13:05:21.084Z,45.80
2023-03-10T13:07:49.759Z,46.28
2023-03-10T13:10:18.252Z,45.90
2023-03-10T13:12:48.624Z,46.01
2023-03-10T13:15:24.414Z,46.05
2023-03-10T13:17:55.089Z,45.96
2023-03-10T13:20:23.116Z,46.18
2023-03-10T13:22:54.788Z,46.13
2023-03-10T13:25:22.816Z,46.38
2023-03-10T13:27:52.554Z,45.97
2023-03-10T13:30:21.126Z,45.97
2023-03-10T13:32:58.584Z,46.31
2023-03-10T13:35:30.631Z,46.15
2023-03-10T13:38:06.148Z,45.78
2023-03-10T13:40:33.849Z,45.57
2023-03-10T13:43:02.887Z,45.95
2023-03-10T13:45:34.295Z,45.83
2023-03-10T13:48:02.819Z,45.58
2023-03-10T13:50:30.696Z,45.85
2023-03-10T13:52:59.685Z,45.95
2023-03-10T13:55:27.517Z,46.08
2023-03-10T13:57:55.302Z,45.61
2023-03-10T14:00:24.877Z,46.05
2023-03-10T14:02:53.037Z,45.73
2023-03-10T14:05:41.580Z,45.96
2023-03-10T14:08:18.596Z,45.75
2023-03-10T14:10:46.251Z,45.99
2023-03-10T14:13:41.195Z,45.72
2023-03-10T14:16:10.423Z,45.83
2023-03-10T14:18:38.611Z,45.99
2023-03-10T14:21:34.523Z,45.95
2023-03-10T14:24:06.609Z,46.07
2023-03-10T14:26:34.468Z,46.11
2023-03-10T14:29:03.283Z,45.93
2023-03-10T14:31:32.298Z,46.13
2023-03-10T14:33:59.938Z,45.73
2023-03-10T14:36:28.127Z,46.09
2023-03-10T14:38:55.870Z,45.83
2023-03-10T14:41:24.695Z,45.92
2023-03-10T14:43:52.586Z,45.66
2023-03-10T14:46:20.476Z,46.03
2023-03-10T14:48:49.729Z,46.21
2023-03-10T14:51:32.521Z,45.81
2023-03-10T14:54:02.269Z,46.19
2023-03-10T14:56:30.001Z,45.96
2023-03-10T14:59:01.944Z,46.18
2023-03-10T15:01:29.834Z,46.00
2023-03-10T15:03:58.883Z,45.97
2023-03-10T15:06:26.574Z,46.12
2023-03-10T15:08:54.317Z,46.16
2023-03-10T15:11:36.132Z,46.00
2023-03-10T15:14:05.207Z,46.01
2023-03-10T15:16:32.900Z,45.90
2023-03-10T15:19:02.179Z,46.16
2023-03-10T15:21:29.859Z,45.75
2023-03-10T15:23:57.556Z,46.18
2023-03-10T15:26:25.234Z,46.00
2023-03-10T15:28:53.198Z,46.05
2023-03-10T15:31:21.151Z,46.37
2023-03-10T15:33:49.017Z,46.09
2023-03-10T15:36:18.738Z,45.85
2023-03-10T15:38:46.506Z,46.16
2023-03-10T15:41:14.235Z,46.07
2023-03-10T15:43:41.913Z,46.38
2023-03-10T15:46:09.692Z,46.17
2023-03-10T15:48:37.431Z,46.06
2023-03-10T15:51:09.848Z,46.45
2023-03-10T15:53:39.053Z,46.29
2023-03-10T15:56:07.480Z,46.13
2023-03-10T15:58:35.215Z,45.95
2023-03-10T16:01:07.592Z,46.12
2023-03-10T16:03:36.034Z,46.51
2023-03-10T16:06:03.783Z,46.06
2023-03-10T16:08:37.088Z,46.35
2023-03-10T16:11:07.243Z,46.31
2023-03-10T16:13:34.921Z,46.18
2023-03-10T16:16:06.191Z,46.29
2023-03-10T16:18:34.225Z,46.41
2023-03-10T16:21:02.337Z,46.41
2023-03-10T16:23:31.724Z,46.50
2023-03-10T16:26:08.219Z,46.57
2023-03-10T16:28:35.925Z,46.58
2023-03-10T16:31:04.076Z,46.34
2023-03-10T16:33:31.894Z,46.33
2023-03-10T16:36:00.290Z,46.16
2023-03-10T16:38:28.087Z,46.23
2023-03-10T16:40:57.450Z,46.23
2023-03-10T16:43:28.678Z,46.03
2023-03-10T16:46:05.925Z,46.18
2023-03-10T16:48:33.603Z,46.33
2023-03-10T16:51:01.303Z,46.23
2023-03-10T16:53:28.994Z,46.38
2023-03-10T16:56:04.397Z,46.48
2023-03-10T16:58:34.007Z,46.50
2023-03-10T17:01:01.982Z,46.20
2023-03-10T17:03:29.702Z,46.41
2023-03-10T17:05:57.456Z,46.11
2023-03-10T17:08:25.130Z,46.31
2023-03-10T17:10:52.785Z,46.51
2023-03-10T17:13:20.479Z,46.28
2023-03-10T17:15:49.551Z,46.30
2023-03-10T17:18:19.336Z,46.40
2023-03-10T17:20:47.096Z,46.72
2023-03-10T17:23:14.748Z,46.35
2023-03-10T17:25:43.230Z,46.29
2023-03-10T17:28:10.887Z,46.12
2023-03-10T17:30:39.883Z,46.50
2023-03-10T17:33:09.271Z,46.53
2023-03-10T17:35:38.404Z,46.38
2023-03-10T17:38:06.088Z,46.26
2023-03-10T17:40:34.714Z,46.48
2023-03-10T17:43:13.259Z,46.55
2023-03-10T17:45:57.006Z,46.55
2023-03-10T17:48:26.230Z,46.56
2023-03-10T17:50:53.904Z,46.23
2023-03-10T17:53:21.590Z,46.65
2023-03-10T17:55:49.295Z,46.37
2023-03-10T17:58:17.011Z,46.50
2023-03-10T18:00:44.671Z,46.55
2023-03-10T18:03:12.391Z,46.42
2023-03-10T18:05:42.318Z,46.55
2023-03-10T18:08:10.127Z,46.74
2023-03-10T18:10:38.185Z,46.79
2023-03-10T18:13:06.779Z,46.72
2023-03-10T18:15:35.125Z,46.54
2023-03-10T18:18:02.913Z,46.50
2023-03-10T18:20:30.603Z,46.69
2023-03-10T18:23:00.975Z,46.37
2023-03-10T18:25:28.697Z,46.26
2023-03-10T18:27:56.534Z,46.46
2023-03-10T18:30:25.863Z,46.64
2023-03-10T18:32:53.629Z,46.57
2023-03-10T18:35:21.380Z,46.50
2023-03-10T18:37:49.091Z,46.45
2023-03-10T18:40:18.365Z,46.19
2023-03-10T18:42:46.153Z,46.30
2023-03-10T18:45:13.879Z,46.51
2023-03-10T18:47:42.556Z,46.37
2023-03-10T18:50:12.040Z,46.59
2023-03-10T18:52:39.799Z,46.57
2023-03-10T18:55:07.870Z,46.59
2023-03-10T18:57:36.914Z,46.53
2023-03-10T19:00:07.573Z,46.41
2023-03-10T19:02:35.477Z,46.60
2023-03-10T19:05:05.131Z,46.21
2023-03-10T19:07:33.666Z,46.49
2023-03-10T19:10:01.370Z,46.38
2023-03-10T19:12:29.083Z,46.49
2023-03-10T19:14:59.300Z,46.46
2023-03-10T19:17:27.411Z,46.16
2023-03-10T19:19:55.185Z,46.04
2023-03-10T19:22:22.953Z,46.24
2023-03-10T19:24:50.638Z,46.47
2023-03-10T19:27:18.484Z,46.55
2023-03-10T19:29:46.176Z,46.68
2023-03-10T19:32:15.514Z,46.46
2023-03-10T19:34:43.212Z,46.48
2023-03-10T19:37:10.916Z,46.34
2023-03-10T19:39:38.624Z,46.44
2023-03-10T19:42:06.426Z,46.28
2023-03-10T19:44:34.135Z,46.24
2023-03-10T19:47:02.013Z,46.51
2023-03-10T19:49:34.109Z,46.21
2023-03-10T19:52:01.865Z,46.56
2023-03-10T19:54:29.599Z,46.59
2023-03-10T19:56:57.283Z,46.53
2023-03-10T19:59:24.989Z,46.43
2023-03-10T20:01:52.707Z,46.53
2023-03-10T20:04:20.404Z,46.41
2023-03-10T20:06:49.511Z,46.46
2023-03-10T20:09:18.914Z,46.44
2023-03-10T20:11:46.646Z,46.53
2023-03-10T20:14:14.346Z,46.64
2023-03-10T20:16:42.050Z,46.33
2023-03-10T20:19:09.796Z,46.21
2023-03-10T20:21:37.472Z,46.21
2023-03-10T20:24:07.211Z,46.47
2023-03-10T20:26:34.905Z,46.29
2023-03-10T20:29:02.588Z,46.49
2023-03-10T20:31:33.860Z,46.52
2023-03-10T20:34:01.773Z,46.21
2023-03-10T20:36:29.498Z,46.51
2023-03-10T20:38:57.207Z,46.44
2023-03-10T20:41:26.267Z,46.30
2023-03-10T20:43:55.247Z,46.58
2023-03-10T20:46:24.704Z,46.38
2023-03-10T20:48:52.433Z,46.15
2023-03-10T20:51:22.511Z,46.25
2023-03-10T20:53:51.740Z,46.18
2023-03-10T20:56:19.466Z,46.38
2023-03-10T20:58:48.602Z,46.12
2023-03-10T21:01:16.684Z,46.21
2023-03-10T21:03:44.498Z,46.36
2023-03-10T21:06:12.250Z,46.61
2023-03-10T21:08:39.975Z,46.57
2023-03-10T21:11:07.661Z,46.25
2023-03-10T21:13:35.390Z,46.47
2023-03-10T21:16:04.652Z,46.47
2023-03-10T21:18:32.363Z,46.50
2023-03-10T21:21:00.044Z,46.07
2023-03-10T21:23:27.789Z,46.20
2023-03-10T21:25:55.486Z,46.31
2023-03-10T21:28:23.165Z,46.16
2023-03-10T21:30:50.858Z,46.49
2023-03-10T21:33:22.936Z,46.50
2023-03-10T21:35:50.675Z,46.39
2023-03-10T21:38:18.408Z,46.35
2023-03-10T21:40:46.146Z,46.04
2023-03-10T21:43:13.864Z,46.33
2023-03-10T21:45:41.626Z,46.22
2023-03-10T21:48:11.546Z,46.55
2023-03-10T21:50:40.603Z,46.50
2023-03-10T21:53:08.365Z,46.19
2023-03-10T21:55:38.159Z,46.23
2023-03-10T21:58:06.494Z,46.18
2023-03-10T22:00:36.043Z,46.22
2023-03-10T22:03:03.990Z,46.37
2023-03-10T22:05:31.762Z,46.35
2023-03-10T22:08:01.026Z,46.29
2023-03-10T22:10:28.770Z,46.24
2023-03-10T22:12:56.467Z,46.29
2023-03-10T22:15:25.285Z,46.10
2023-03-10T22:17:53.628Z,46.28
2023-03-10T22:20:22.801Z,46.28
2023-03-10T22:22:50.572Z,46.59
2023-03-10T22:25:19.796Z,46.61
2023-03-10T22:27:49.844Z,46.54
2023-03-10T22:30:17.732Z,46.58
2023-03-10T22:32:45.520Z,46.51
2023-03-10T22:35:13.235Z,46.61
2023-03-10T22:37:40.988Z,46.24
2023-03-10T22:40:10.251Z,46.42
2023-03-10T22:42:39.700Z,46.52
2023-03-10T22:45:08.501Z,46.51
2023-03-10T22:47:36.205Z,46.28
2023-03-10T22:50:04.344Z,46.27
2023-03-10T22:52:32.105Z,46.16
2023-03-10T22:55:00.212Z,46.19
2023-03-10T22:57:27.890Z,46.25
2023-03-10T22:59:56.939Z,46.25
2023-03-10T23:02:24.592Z,46.42
2023-03-10T23:04:52.263Z,46.25
2023-03-10T23:07:19.931Z,46.39
2023-03-10T23:09:47.594Z,46.25
2023-03-10T23:12:15.267Z,46.38
2023-03-10T23:14:42.932Z,46.38
2023-03-10T23:17:11.950Z,46.20
2023-03-10T23:19:39.603Z,46.20
2023-03-10T23:22:07.347Z,46.32
2023-03-10T23:24:35.166Z,46.12
2023-03-10T23:27:02.829Z,46.23
2023-03-10T23:29:30.481Z,46.32
2023-03-10T23:31:58.176Z,46.19
2023-03-10T23:34:27.188Z,46.39
2023-03-10T23:36:57.196Z,46.10
2023-03-10T23:39:24.893Z,46.15
2023-03-10T23:41:52.569Z,46.27
2023-03-10T23:44:20.900Z,46.44
2023-03-10T23:46:51.716Z,46.23
2023-03-10T23:49:19.429Z,46.07
2023-03-10T23:51:48.738Z,46.22
2023-03-10T23:54:20.538Z,45.91
2023-03-10T23:56:48.276Z,45.97
2023-03-10T23:59:15.953Z,46.09
